CheckWX is a tool to help pilots better visualize weather data.  It is not intended as a substitute for an official pre-flight weather briefing.

10:33:41 UTC

KGDJ METAR
Granbury Regional Airport
Granbury, Texas, USA
Current

19 mins ago

KGDJ 191015Z AUTO 00000KT 1/2SM FG OVC004 16/15 A2980 RMK AO2 T01640154
Observed
May-19 @ 10:15 UTC
Visibility
1/2 SM
Flight Rules
LIFR
Conditions
Fog
Cloud Levels
  • Overcast at 400' AGL
Temperature
16°C / 61°F
Dewpoint
15°C / 59°F
Humidity
94%
Altimeter
29.8" Hg
Pressure
1009.12 hPa
Previous

39 mins ago

KGDJ 190955Z AUTO 00000KT 1 1/2SM BR VV007 16/15 A2979 RMK AO2 T01600147
Observed
May-19 @ 09:55 UTC
Visibility
1 1/2 SM
Flight Rules
LIFR
Conditions
Mist
Cloud Levels
  • Vertical visibility at 700' AGL
Temperature
16°C / 61°F
Dewpoint
15°C / 59°F
Humidity
94%
Altimeter
29.79" Hg
Pressure
1008.82 hPa
Previous

59 mins ago

KGDJ 190935Z AUTO 00000KT 5SM BR CLR 18/17 A2977 RMK AO2 T01820169
Observed
May-19 @ 09:35 UTC
Visibility
5 SM
Flight Rules
MVFR
Conditions
Mist
Cloud Levels
  • Clear skies
Temperature
18°C / 64°F
Dewpoint
17°C / 63°F
Humidity
94%
Altimeter
29.77" Hg
Pressure
1008.12 hPa